SCEL/SCL METAR and TAF weather

Enter ICAO airport designator
Station Type Date Time Source
SCEL METAR 2018/12/12 12:00 UTC NOAA

SCEL 121200Z 19003KT 140V250 CAVOK 19/11 Q1015 NOSIG


Station Type Date Time Source
SCEL Decoded METAR 2018/12/12 12:00 UTC NOAA

Pudahuel, Chile (SCEL) 33-23S 070-47W 476M
Dec 12, 2018 - 07:00 AM EST / 2018.12.12 1200 UTC
Wind: from the S (190 degrees) at 3 MPH (3 KT) (direction variable):0
Visibility: greater than 7 mile(s):0
Temperature: 66 F (19 C)
Dew Point: 51 F (11 C)
Relative Humidity: 59%
Pressure (altimeter): 29.97 in. Hg (1015 hPa)
ob: SCEL 121200Z 19003KT 140V250 CAVOK 19/11 Q1015 NOSIG
cycle: 12

Station Type Date Time Source
SCEL TAF 2018/12/12 12:03 UTC NOAA

TAF SCEL 121009Z 1212/1312 18004KT CAVOK TX30/1219Z TN10/1311Z
BECMG 1215/1217 18010KT
BECMG 1218/1220 22013KT
TEMPO 1218/1300 FEW050 SCT220
BECMG 1301/1303 18004KT
TEMPO 1310/1312 7000 NSC


Example: see airport list